Aérodrome :
LOGIN :

S'inscrire | Disclaimer

   EN    FR    IT 

 










Légende :    VFR   VFR Marginal   IFR   IFR Intensif   IFR Très Intensif
Visi : 
Plafond : 
>= 8 km
>= 3000ft
5 à 8 km
1000 à 3000 ft
1500m à 5 km
500 à 1000 ft
800 à 1500m
200 à 500 ft
< 800m
< 200 ft
Symboles :   Orages  Brouillard  Fortes neiges  Fortes précipitations  Vent > 20 kt
SIGMETs :   Divers  Orages  Givrage  Turbulence  Onde Orograph.  Cendres Volcan.






- Altitude de l'aérodrome : 7 ft
- Code IATA : POW


LJPZ - Portoroz

DERNIER METAR :
  • 131030Z 20009KT 170V240 9999 FEW033 33/18 Q1009

METARs EXPIRÉS :
  • 131000Z 20006KT 150V240 9999 FEW033 SCT200 33/19 Q1009
  • 130930Z VRB04KT 9999 FEW033 SCT200 32/22 Q1009
  • 130900Z 20007KT 160V250 9999 FEW033 SCT090 31/24 Q1009
  • 130830Z 17005KT 120V220 CAVOK 32/23 Q1009
  • 130800Z 19005KT 150V220 CAVOK 31/23 Q1009
  • 130730Z 17004KT 100V210 CAVOK 31/23 Q1009
  • 130700Z 17003KT 110V280 CAVOK 30/22 Q1009
  • 130630Z 10003KT 050V130 CAVOK 29/22 Q1009
  • 130600Z VRB02KT CAVOK 26/20 Q1009

TAF TAF LJPZ
Valide du 13 à 09h jusqu'au 13 à 18h UTC


130800Z 1309/1318 VRB02KT CAVOK
PROB40
TEMPO 1310/1318 20010KT



MET'MAP, la Météo Aéronautique d'un coup d'oeil ! - Copyright ORBIFLY Décembre 2007 - Disclaimer

ORBIFLY MET'MAP TEAM :

Programmation & Développement : Alexandra Zaïnal
Sur une idée originale de : Baudouin d'Aumeries
Soutien technique & logistique : Manuel Goepfert
Assistance : Marc-Olivier Méhu




SOURCES & CREDITS :

   NOAA